Time;durP1;ratioP1;P1;durP2;ratioP2;P2;SDS_P1;SDS_P2;PMS_P1;PMS_P2;Temp;Humidity;BMP_temperature;BMP_pressure;BME280_temperature;BME280_humidity;BME280_pressure;Samples;Min_cycle;Max_cycle;Signal;HPM_P1;HPM_P2
2023/12/17 00:00:53;;;;;;;13.93;7.37;;;10.10;99.90;;;;;;5051966;28;20104;-77
2023/12/17 00:03:18;;;;;;;10.80;7.03;;;10.10;99.90;;;;;;5058040;28;20504;-77
2023/12/17 00:05:44;;;;;;;13.30;7.10;;;10.10;99.90;;;;;;5032376;28;20037;-77
2023/12/17 00:08:10;;;;;;;12.60;8.10;;;10.10;99.90;;;;;;5024724;28;20044;-77
2023/12/17 00:10:35;;;;;;;15.10;8.27;;;10.10;99.90;;;;;;5036397;28;20060;-77
2023/12/17 00:13:01;;;;;;;12.47;7.63;;;10.10;99.90;;;;;;5050267;28;20048;-77
2023/12/17 00:15:27;;;;;;;12.73;8.07;;;10.10;99.90;;;;;;5077474;28;20090;-77
2023/12/17 00:17:52;;;;;;;12.30;7.57;;;10.10;99.90;;;;;;5056149;28;20044;-77
2023/12/17 00:20:18;;;;;;;10.80;7.27;;;10.10;99.90;;;;;;5079765;28;20104;-77
2023/12/17 00:22:44;;;;;;;12.27;7.03;;;10.10;99.90;;;;;;5040396;28;20046;-77
2023/12/17 00:25:09;;;;;;;13.60;7.40;;;10.10;99.90;;;;;;5048292;28;20044;-77
2023/12/17 00:27:35;;;;;;;12.80;7.10;;;10.10;99.90;;;;;;5076936;28;20049;-77
2023/12/17 00:30:01;;;;;;;13.13;7.13;;;10.10;99.90;;;;;;5078308;28;20521;-77
2023/12/17 00:32:26;;;;;;;12.67;7.17;;;10.10;99.90;;;;;;5061982;28;20104;-77
2023/12/17 00:34:52;;;;;;;11.33;7.50;;;10.10;99.90;;;;;;5060682;28;20044;-77
2023/12/17 00:37:18;;;;;;;11.93;6.90;;;10.10;99.90;;;;;;5065189;28;20041;-76
2023/12/17 00:39:43;;;;;;;11.07;7.20;;;10.10;99.90;;;;;;5074920;28;20051;-77
2023/12/17 00:42:10;;;;;;;12.67;7.53;;;10.10;99.90;;;;;;5043381;28;20132;-77
2023/12/17 00:44:36;;;;;;;12.57;7.93;;;10.10;99.90;;;;;;5075620;28;20113;-77
2023/12/17 00:47:02;;;;;;;11.87;7.40;;;10.10;99.90;;;;;;5044337;28;20506;-77
2023/12/17 00:49:28;;;;;;;13.47;7.00;;;10.10;99.90;;;;;;5044983;28;20548;-77
2023/12/17 00:51:54;;;;;;;15.17;7.33;;;10.10;99.90;;;;;;5074135;28;20405;-77
2023/12/17 00:54:19;;;;;;;10.03;6.60;;;10.10;99.90;;;;;;5078536;28;20084;-77
2023/12/17 00:56:45;;;;;;;13.33;7.40;;;10.10;99.90;;;;;;5057333;28;20094;-77
2023/12/17 00:59:11;;;;;;;12.63;6.97;;;10.10;99.90;;;;;;5058424;28;20048;-77
2023/12/17 01:01:38;;;;;;;10.67;6.67;;;10.10;99.90;;;;;;5025515;28;20568;-76
2023/12/17 01:04:04;;;;;;;13.17;7.43;;;10.10;99.90;;;;;;5075257;28;20060;-77
2023/12/17 01:06:30;;;;;;;11.60;6.73;;;10.10;99.90;;;;;;5044717;28;20055;-78
2023/12/17 01:08:55;;;;;;;12.47;6.80;;;10.10;99.90;;;;;;5046391;28;20041;-77
2023/12/17 01:11:21;;;;;;;12.83;6.87;;;10.10;99.90;;;;;;5045850;28;20055;-78
2023/12/17 01:13:46;;;;;;;12.17;6.97;;;10.10;99.90;;;;;;5035880;28;20100;-77
2023/12/17 01:16:12;;;;;;;13.20;7.17;;;10.10;99.90;;;;;;5038893;28;20048;-78
2023/12/17 01:18:38;;;;;;;9.40;6.77;;;10.10;99.90;;;;;;5028368;28;20508;-78
2023/12/17 01:21:05;;;;;;;12.40;6.60;;;10.20;99.90;;;;;;5043689;28;20044;-78
2023/12/17 01:23:31;;;;;;;11.47;6.53;;;10.20;99.90;;;;;;5075583;28;20080;-77
2023/12/17 01:25:56;;;;;;;10.20;6.40;;;10.20;99.90;;;;;;5027644;28;20470;-77
2023/12/17 01:28:22;;;;;;;11.50;6.70;;;10.10;99.90;;;;;;5027075;28;20040;-78
2023/12/17 01:30:48;;;;;;;11.73;7.23;;;10.10;99.90;;;;;;5055924;28;20083;-78
2023/12/17 01:33:14;;;;;;;13.60;6.57;;;10.20;99.90;;;;;;5038319;28;20109;-78
2023/12/17 01:35:39;;;;;;;14.03;6.90;;;10.10;99.90;;;;;;5054515;28;20040;-78
2023/12/17 01:38:05;;;;;;;12.00;6.90;;;10.20;99.90;;;;;;5025348;28;20056;-77
2023/12/17 01:40:31;;;;;;;10.45;6.32;;;10.10;99.90;;;;;;5071082;28;20053;-78
2023/12/17 01:42:57;;;;;;;12.17;7.00;;;10.20;99.90;;;;;;5041861;28;20072;-78
2023/12/17 01:45:22;;;;;;;11.37;6.70;;;10.10;99.90;;;;;;5072476;28;20040;-78
2023/12/17 01:47:49;;;;;;;12.33;7.20;;;10.10;99.90;;;;;;5022676;28;20489;-78
2023/12/17 01:50:15;;;;;;;11.43;7.27;;;10.10;99.90;;;;;;5068719;28;20066;-77
2023/12/17 01:52:42;;;;;;;14.33;7.10;;;10.20;99.90;;;;;;5053787;28;20051;-78
2023/12/17 01:55:08;;;;;;;11.87;6.87;;;10.20;99.90;;;;;;5055290;28;20062;-78
2023/12/17 01:57:34;;;;;;;12.70;6.87;;;10.20;99.90;;;;;;5074744;28;20062;-77
2023/12/17 02:00:01;;;;;;;11.07;6.67;;;10.20;99.90;;;;;;5053922;28;20044;-78
2023/12/17 02:02:26;;;;;;;9.93;6.73;;;10.20;99.90;;;;;;5057917;28;20049;-77
2023/12/17 02:04:52;;;;;;;12.03;7.00;;;10.20;99.90;;;;;;5054320;28;20667;-78
2023/12/17 02:07:18;;;;;;;10.87;6.73;;;10.20;99.90;;;;;;5075667;28;20036;-77
2023/12/17 02:09:44;;;;;;;9.37;6.70;;;10.20;99.90;;;;;;5037393;28;20114;-77
2023/12/17 02:12:30;;;;;;;13.50;7.20;;;10.20;99.90;;;;;;5059151;28;20056;-77
2023/12/17 02:14:55;;;;;;;9.87;6.70;;;10.20;99.90;;;;;;5052961;28;20166;-77
2023/12/17 02:17:29;;;;;;;12.07;6.87;;;10.20;99.90;;;;;;5041342;28;20041;-77
2023/12/17 02:19:55;;;;;;;12.13;7.53;;;10.20;99.90;;;;;;5074666;28;20064;-77
2023/12/17 02:22:25;;;;;;;12.47;7.40;;;10.20;99.90;;;;;;5054234;28;20083;-76
2023/12/17 02:24:52;;;;;;;12.07;7.20;;;10.20;99.90;;;;;;5072636;28;20133;-78
2023/12/17 02:27:25;;;;;;;13.25;7.80;;;10.20;99.90;;;;;;5055222;28;20037;-77
2023/12/17 02:29:52;;;;;;;14.13;7.70;;;10.20;99.90;;;;;;5056087;28;20086;-77
2023/12/17 02:32:20;;;;;;;16.97;7.83;;;10.20;99.90;;;;;;5041031;28;20043;-77
2023/12/17 02:34:46;;;;;;;11.97;7.53;;;10.20;99.90;;;;;;5038162;28;20082;-77
2023/12/17 02:37:12;;;;;;;13.67;6.63;;;10.20;99.90;;;;;;5071832;28;20040;-77
2023/12/17 02:39:38;;;;;;;12.13;7.47;;;10.20;99.90;;;;;;5069731;28;20033;-78
2023/12/17 02:42:04;;;;;;;12.37;7.40;;;10.20;99.90;;;;;;5074856;28;20072;-77
2023/12/17 02:44:30;;;;;;;12.13;7.50;;;10.20;99.90;;;;;;5039442;28;20048;-77
2023/12/17 02:46:56;;;;;;;10.37;7.30;;;10.20;99.90;;;;;;5055316;28;20037;-77
2023/12/17 02:49:22;;;;;;;15.57;7.30;;;10.20;99.90;;;;;;5070861;28;20568;-77
2023/12/17 02:51:47;;;;;;;14.70;7.37;;;10.20;99.90;;;;;;5053831;28;20071;-76
2023/12/17 02:54:13;;;;;;;11.90;7.23;;;10.20;99.90;;;;;;5070424;28;20134;-77
2023/12/17 02:56:40;;;;;;;11.80;7.50;;;10.20;99.90;;;;;;5053683;28;20501;-77
2023/12/17 02:59:10;;;;;;;12.20;7.30;;;10.20;99.90;;;;;;5074268;28;20040;-77
2023/12/17 03:01:36;;;;;;;13.30;6.85;;;10.20;99.90;;;;;;5072604;28;20424;-77
2023/12/17 03:04:05;;;;;;;11.23;7.13;;;10.20;99.90;;;;;;5023863;28;20055;-77
2023/12/17 03:06:31;;;;;;;11.57;7.00;;;10.10;99.90;;;;;;5037874;28;20047;-77
2023/12/17 03:08:57;;;;;;;11.57;6.88;;;10.20;99.90;;;;;;5067929;28;20060;-76
2023/12/17 03:11:22;;;;;;;9.73;6.97;;;10.20;99.90;;;;;;5070361;28;20048;-77
2023/12/17 03:13:48;;;;;;;13.23;7.00;;;10.20;99.90;;;;;;5052794;28;20136;-76
2023/12/17 03:16:14;;;;;;;10.57;6.70;;;10.20;99.90;;;;;;5074907;28;20044;-76
2023/12/17 03:18:39;;;;;;;14.17;7.57;;;10.20;99.90;;;;;;5039626;28;20071;-78
2023/12/17 03:21:09;;;;;;;12.43;7.18;;;10.20;99.90;;;;;;5055394;28;20161;-77
2023/12/17 03:23:35;;;;;;;12.82;7.38;;;10.20;99.90;;;;;;5071372;28;20044;-77
2023/12/17 03:26:02;;;;;;;15.57;7.47;;;10.20;99.90;;;;;;5036744;28;20048;-77
2023/12/17 03:28:28;;;;;;;14.07;7.47;;;10.10;99.90;;;;;;5072431;28;20041;-77
2023/12/17 03:30:53;;;;;;;10.80;6.82;;;10.10;99.90;;;;;;5038355;28;20054;-77
2023/12/17 03:33:19;;;;;;;14.57;7.25;;;10.10;99.90;;;;;;5057057;28;20075;-77
2023/12/17 03:35:46;;;;;;;16.47;7.70;;;10.10;99.90;;;;;;5037921;28;20521;-77
2023/12/17 03:38:13;;;;;;;14.03;8.00;;;10.10;99.90;;;;;;5039362;28;20051;-76
2023/12/17 03:40:38;;;;;;;13.43;7.57;;;10.10;99.90;;;;;;5050788;28;20044;-77
2023/12/17 03:43:04;;;;;;;14.77;7.40;;;10.10;99.90;;;;;;5071374;28;20139;-77
2023/12/17 03:45:31;;;;;;;12.65;7.72;;;10.10;99.90;;;;;;5052937;28;20135;-77
2023/12/17 03:47:57;;;;;;;14.63;7.03;;;10.10;99.90;;;;;;5054991;28;20064;-77
2023/12/17 03:50:23;;;;;;;10.00;6.70;;;10.10;99.90;;;;;;5054345;28;20071;-77
2023/12/17 03:52:49;;;;;;;12.13;7.07;;;10.10;99.90;;;;;;5070679;28;20053;-78
2023/12/17 03:55:15;;;;;;;13.23;6.90;;;10.10;99.90;;;;;;5055024;28;20051;-78
2023/12/17 03:57:41;;;;;;;13.83;7.10;;;10.10;99.90;;;;;;5032869;28;20045;-77
2023/12/17 04:00:10;;;;;;;10.93;6.67;;;10.20;99.90;;;;;;5051747;28;20105;-78
2023/12/17 04:02:36;;;;;;;12.23;6.80;;;10.10;99.90;;;;;;5054551;28;20166;-77
2023/12/17 04:05:02;;;;;;;16.13;6.83;;;10.10;99.90;;;;;;5036417;28;20090;-77
2023/12/17 04:07:30;;;;;;;14.57;7.37;;;10.10;99.90;;;;;;5049352;28;20909;-76
2023/12/17 04:10:03;;;;;;;11.33;7.53;;;10.10;99.90;;;;;;5052614;28;20066;-76
2023/12/17 04:12:28;;;;;;;14.17;7.13;;;10.10;99.90;;;;;;5069975;28;20612;-77
2023/12/17 04:14:54;;;;;;;9.88;6.78;;;10.10;99.90;;;;;;5066905;28;20282;-77
2023/12/17 04:17:20;;;;;;;12.73;6.97;;;10.10;99.90;;;;;;5067886;28;20052;-77
2023/12/17 04:19:46;;;;;;;11.13;7.60;;;10.10;99.90;;;;;;5031645;28;20072;-77
2023/12/17 04:22:12;;;;;;;13.90;7.23;;;10.10;99.90;;;;;;5050536;28;20428;-77
2023/12/17 04:24:38;;;;;;;11.27;7.20;;;10.10;99.90;;;;;;5070972;28;20075;-77
2023/12/17 04:27:04;;;;;;;10.60;6.87;;;10.10;99.90;;;;;;5034706;28;20044;-75
2023/12/17 04:29:30;;;;;;;12.82;7.45;;;10.10;99.90;;;;;;5036587;28;20044;-77
2023/12/17 04:31:55;;;;;;;10.00;7.20;;;10.10;99.90;;;;;;5069835;28;20110;-76
2023/12/17 04:34:21;;;;;;;11.63;7.30;;;10.00;99.90;;;;;;5036605;28;20033;-78
2023/12/17 04:36:47;;;;;;;11.20;7.17;;;10.10;99.90;;;;;;5056681;28;20040;-77
2023/12/17 04:39:12;;;;;;;13.27;7.90;;;10.10;99.90;;;;;;5069984;28;20047;-77
2023/12/17 04:41:39;;;;;;;14.10;7.43;;;10.10;99.90;;;;;;5053104;28;20055;-77
2023/12/17 04:44:05;;;;;;;10.97;7.53;;;10.10;99.90;;;;;;5050030;28;20388;-77
2023/12/17 04:46:31;;;;;;;11.57;7.93;;;10.10;99.90;;;;;;5057517;28;20056;-77
2023/12/17 04:48:57;;;;;;;10.80;7.40;;;10.10;99.90;;;;;;5069038;28;20045;-77
2023/12/17 04:51:23;;;;;;;10.97;7.53;;;10.10;99.90;;;;;;5068848;28;20048;-78
2023/12/17 04:53:49;;;;;;;8.47;6.80;;;10.10;99.90;;;;;;5069437;28;20073;-77
2023/12/17 04:56:16;;;;;;;11.37;7.80;;;10.00;99.90;;;;;;5069394;28;20094;-77
2023/12/17 04:58:42;;;;;;;11.50;7.53;;;10.00;99.90;;;;;;5054996;28;20145;-77
2023/12/17 05:01:07;;;;;;;13.37;7.30;;;10.10;99.90;;;;;;5051634;28;20453;-77
2023/12/17 05:03:33;;;;;;;10.13;7.33;;;10.00;99.90;;;;;;5058644;28;20041;-78
2023/12/17 05:05:59;;;;;;;12.53;6.80;;;10.10;99.90;;;;;;5072279;28;20056;-77
2023/12/17 05:08:25;;;;;;;11.47;7.47;;;10.10;99.90;;;;;;5076839;28;20060;-76
2023/12/17 05:10:50;;;;;;;10.70;7.43;;;10.00;99.90;;;;;;5075310;28;20047;-76
2023/12/17 05:13:16;;;;;;;11.80;6.77;;;10.10;99.90;;;;;;5054915;28;20055;-77
2023/12/17 05:15:42;;;;;;;13.17;7.00;;;10.10;99.90;;;;;;5071229;28;20096;-77
2023/12/17 05:18:08;;;;;;;11.10;6.90;;;10.10;99.90;;;;;;5055008;28;20044;-77
2023/12/17 05:20:33;;;;;;;7.97;6.17;;;10.00;99.90;;;;;;5074606;28;20029;-77
2023/12/17 05:22:59;;;;;;;11.23;6.73;;;10.00;99.90;;;;;;5056703;28;20084;-76
2023/12/17 05:25:25;;;;;;;12.37;6.80;;;10.00;99.90;;;;;;5073753;28;20041;-76
2023/12/17 05:27:50;;;;;;;10.00;5.83;;;10.00;99.90;;;;;;5073492;28;20128;-76
2023/12/17 05:30:16;;;;;;;9.67;6.20;;;10.00;99.90;;;;;;5042481;28;20040;-77
2023/12/17 05:32:42;;;;;;;12.50;6.50;;;10.00;99.90;;;;;;5056760;28;20055;-77
2023/12/17 05:35:08;;;;;;;8.93;6.23;;;10.00;99.90;;;;;;5071945;28;20515;-77
2023/12/17 05:37:34;;;;;;;9.70;6.50;;;10.00;99.90;;;;;;5043509;28;20057;-78
2023/12/17 05:40:00;;;;;;;13.47;6.80;;;10.00;99.90;;;;;;5053650;28;20629;-75
2023/12/17 05:42:25;;;;;;;11.07;6.63;;;10.00;99.90;;;;;;5074296;28;20044;-77
2023/12/17 05:44:51;;;;;;;9.67;5.90;;;10.00;99.90;;;;;;5069698;28;20350;-76
2023/12/17 05:47:17;;;;;;;9.13;6.00;;;10.00;99.90;;;;;;5073790;28;20617;-77
2023/12/17 05:49:43;;;;;;;10.63;6.37;;;10.00;99.90;;;;;;5072047;28;20135;-77
2023/12/17 05:52:09;;;;;;;12.60;6.73;;;10.00;99.90;;;;;;5039572;28;20150;-77
2023/12/17 05:54:35;;;;;;;10.23;6.50;;;10.00;99.90;;;;;;5059948;28;20040;-77
2023/12/17 05:57:01;;;;;;;11.47;6.60;;;10.00;99.90;;;;;;5056489;28;20048;-78
2023/12/17 05:59:27;;;;;;;9.23;6.27;;;10.00;99.90;;;;;;5055019;28;20587;-78
2023/12/17 06:01:52;;;;;;;10.53;6.83;;;10.00;99.90;;;;;;5058286;28;20044;-78
2023/12/17 06:04:18;;;;;;;9.10;7.10;;;9.90;99.90;;;;;;5073503;28;20049;-78
2023/12/17 06:06:46;;;;;;;11.07;7.23;;;9.90;99.90;;;;;;5058528;28;20052;-78
2023/12/17 06:09:12;;;;;;;9.67;7.57;;;9.90;99.90;;;;;;5054610;28;20048;-78
2023/12/17 06:11:38;;;;;;;12.67;7.63;;;9.90;99.90;;;;;;5075225;28;20048;-77
2023/12/17 06:14:03;;;;;;;16.70;8.23;;;9.90;99.90;;;;;;5069456;28;20032;-77
2023/12/17 06:16:29;;;;;;;11.83;8.00;;;9.90;99.90;;;;;;5056142;28;20098;-76
2023/12/17 06:18:55;;;;;;;10.17;8.07;;;9.90;99.90;;;;;;5036215;28;20041;-77
2023/12/17 06:21:25;;;;;;;11.40;7.10;;;9.80;99.90;;;;;;5070533;28;20044;-77
2023/12/17 06:24:02;;;;;;;13.90;7.43;;;9.80;99.90;;;;;;5073619;28;20056;-75
2023/12/17 06:26:27;;;;;;;10.40;6.57;;;9.80;99.90;;;;;;5070091;28;20037;-76
2023/12/17 06:28:53;;;;;;;10.37;6.80;;;9.80;99.90;;;;;;5039032;28;20059;-77
2023/12/17 06:31:19;;;;;;;9.83;6.53;;;9.80;99.90;;;;;;5055870;28;20071;-76
2023/12/17 06:33:45;;;;;;;10.03;6.50;;;9.80;99.90;;;;;;5058209;28;20056;-77
2023/12/17 06:36:11;;;;;;;9.50;6.30;;;9.80;99.90;;;;;;5054797;28;20048;-77
2023/12/17 06:38:39;;;;;;;13.00;6.50;;;9.70;99.90;;;;;;5070430;28;20039;-78
2023/12/17 06:41:05;;;;;;;11.83;6.10;;;9.80;99.90;;;;;;5072475;28;20726;-77
2023/12/17 06:43:30;;;;;;;7.10;5.87;;;9.70;99.90;;;;;;5072491;28;20048;-77
2023/12/17 06:45:56;;;;;;;9.53;6.07;;;9.70;99.90;;;;;;5055012;28;20084;-77
2023/12/17 06:48:22;;;;;;;9.53;5.67;;;9.70;99.90;;;;;;5024291;28;20040;-78
2023/12/17 06:50:47;;;;;;;8.23;5.87;;;9.70;99.90;;;;;;5039360;28;20502;-77
2023/12/17 06:53:16;;;;;;;10.40;5.90;;;9.70;99.90;;;;;;5052350;28;20070;-75
2023/12/17 06:55:43;;;;;;;9.73;6.10;;;9.70;99.90;;;;;;5051831;28;20093;-77
2023/12/17 06:58:09;;;;;;;10.40;6.63;;;9.70;99.90;;;;;;5071218;28;20039;-77
2023/12/17 07:00:34;;;;;;;11.43;7.07;;;9.70;99.90;;;;;;5069528;28;21159;-78
2023/12/17 07:03:01;;;;;;;7.93;6.10;;;9.70;99.90;;;;;;5070417;28;20614;-77
2023/12/17 07:05:27;;;;;;;10.30;7.07;;;9.70;99.90;;;;;;5065477;28;20040;-78
2023/12/17 07:07:53;;;;;;;9.17;7.50;;;9.70;99.90;;;;;;5075936;28;20051;-77
2023/12/17 07:10:20;;;;;;;12.00;7.87;;;9.70;99.90;;;;;;5069340;28;20044;-77
2023/12/17 07:12:46;;;;;;;13.20;8.57;;;9.70;99.90;;;;;;5072097;28;20040;-77
2023/12/17 07:15:12;;;;;;;11.67;7.90;;;9.70;99.90;;;;;;5072744;28;20123;-76
2023/12/17 07:17:38;;;;;;;13.67;9.40;;;9.70;99.90;;;;;;5071190;28;20071;-77
2023/12/17 07:20:04;;;;;;;14.80;8.60;;;9.70;99.90;;;;;;5036494;28;20185;-77
2023/12/17 07:22:30;;;;;;;13.40;9.13;;;9.60;99.90;;;;;;5054688;28;20123;-77
2023/12/17 07:24:56;;;;;;;14.73;9.53;;;9.70;99.90;;;;;;5020741;28;20136;-76
2023/12/17 07:27:21;;;;;;;15.03;8.83;;;9.70;99.90;;;;;;5066431;28;20352;-77
2023/12/17 07:29:47;;;;;;;13.50;8.70;;;9.70;99.90;;;;;;5036852;28;20100;-76
2023/12/17 07:32:13;;;;;;;12.40;9.23;;;9.60;99.90;;;;;;5073537;28;20079;-76
2023/12/17 07:34:38;;;;;;;11.80;10.10;;;9.60;99.90;;;;;;5068068;28;20049;-77
2023/12/17 07:37:04;;;;;;;13.40;9.07;;;9.60;99.90;;;;;;5069377;28;20041;-77
2023/12/17 07:39:30;;;;;;;12.27;8.83;;;9.60;99.90;;;;;;5051010;28;20468;-77
2023/12/17 07:41:55;;;;;;;13.03;9.50;;;9.60;99.90;;;;;;5071757;28;20049;-77
2023/12/17 07:44:21;;;;;;;13.63;9.93;;;9.60;99.90;;;;;;5034468;28;20037;-72
2023/12/17 07:46:47;;;;;;;14.70;10.27;;;9.60;99.90;;;;;;5030405;28;20132;-72
2023/12/17 07:49:12;;;;;;;17.63;12.07;;;9.60;99.90;;;;;;5051240;28;20047;-74
2023/12/17 07:51:38;;;;;;;16.57;11.43;;;9.60;99.90;;;;;;5031896;28;20093;-71
2023/12/17 07:54:07;;;;;;;16.67;10.80;;;9.60;99.90;;;;;;5023917;28;20052;-73
2023/12/17 07:56:33;;;;;;;16.43;11.23;;;9.60;99.90;;;;;;5052781;28;20058;-73
2023/12/17 07:58:59;;;;;;;18.30;10.53;;;9.60;99.90;;;;;;5024425;28;20080;-75
2023/12/17 08:01:32;;;;;;;19.77;12.07;;;9.60;99.90;;;;;;5065781;28;20099;-75
2023/12/17 08:03:58;;;;;;;16.37;10.97;;;9.50;99.90;;;;;;5037143;28;20060;-75
2023/12/17 08:06:24;;;;;;;13.17;10.43;;;9.60;99.90;;;;;;5036272;28;20044;-75
2023/12/17 08:08:53;;;;;;;13.37;10.10;;;9.60;99.90;;;;;;5051704;28;20041;-75
2023/12/17 08:11:20;;;;;;;16.20;11.23;;;9.60;99.90;;;;;;5054716;28;20098;-74
2023/12/17 08:13:46;;;;;;;16.83;11.33;;;9.60;99.90;;;;;;5068115;28;20041;-76
2023/12/17 08:16:12;;;;;;;19.73;11.97;;;9.50;99.90;;;;;;5067410;28;20041;-77
2023/12/17 08:18:38;;;;;;;20.87;12.20;;;9.60;99.90;;;;;;5047677;28;20105;-77
2023/12/17 08:21:04;;;;;;;17.07;11.53;;;9.50;99.90;;;;;;5044595;28;20056;-76
2023/12/17 08:23:31;;;;;;;17.93;12.17;;;9.60;99.90;;;;;;5055654;28;20072;-76
2023/12/17 08:25:56;;;;;;;16.87;11.63;;;9.50;99.90;;;;;;5055025;28;20156;-77
2023/12/17 08:28:22;;;;;;;19.07;12.77;;;9.50;99.90;;;;;;5046088;28;20116;-74
2023/12/17 08:30:49;;;;;;;15.73;11.73;;;9.50;99.90;;;;;;5032229;28;20389;-74
2023/12/17 08:33:16;;;;;;;16.30;12.90;;;9.50;99.90;;;;;;5065032;28;20045;-76
2023/12/17 08:35:43;;;;;;;18.60;13.53;;;9.50;99.90;;;;;;5034589;28;20045;-77
2023/12/17 08:38:09;;;;;;;20.07;14.67;;;9.50;99.90;;;;;;5052649;28;20064;-76
2023/12/17 08:40:37;;;;;;;18.57;13.60;;;9.50;99.90;;;;;;5057119;28;20033;-75
2023/12/17 08:43:07;;;;;;;21.60;14.37;;;9.50;99.90;;;;;;5069975;28;20072;-76
2023/12/17 08:45:33;;;;;;;21.10;14.63;;;9.60;99.90;;;;;;5072022;28;20052;-76
2023/12/17 08:48:00;;;;;;;20.63;14.60;;;9.50;99.90;;;;;;5070185;28;20405;-77
2023/12/17 08:50:26;;;;;;;17.43;13.70;;;9.50;99.90;;;;;;5057085;28;20090;-75
2023/12/17 08:52:52;;;;;;;19.60;13.90;;;9.50;99.90;;;;;;5075741;28;20044;-75
2023/12/17 08:55:19;;;;;;;25.73;14.00;;;9.50;99.90;;;;;;5075309;28;20158;-74
2023/12/17 08:57:46;;;;;;;23.03;14.90;;;9.50;99.90;;;;;;5054351;28;20055;-74
2023/12/17 09:00:13;;;;;;;24.67;14.93;;;9.60;99.90;;;;;;5067801;28;20053;-74
2023/12/17 09:02:38;;;;;;;23.37;14.90;;;9.60;99.90;;;;;;5075088;28;20057;-75
2023/12/17 09:05:05;;;;;;;21.17;14.70;;;9.60;99.90;;;;;;5037999;28;20055;-76
2023/12/17 09:07:31;;;;;;;23.13;14.70;;;9.60;99.90;;;;;;5061613;28;20041;-76
2023/12/17 09:09:57;;;;;;;19.87;14.20;;;9.60;99.90;;;;;;5056839;28;20048;-77
2023/12/17 09:12:22;;;;;;;20.97;14.03;;;9.60;99.90;;;;;;5044365;28;20040;-76
2023/12/17 09:14:49;;;;;;;22.67;13.50;;;9.60;99.90;;;;;;5063603;28;20059;-80
2023/12/17 09:17:15;;;;;;;23.73;14.57;;;9.60;99.90;;;;;;5050696;28;20033;-79
2023/12/17 09:19:40;;;;;;;24.53;15.03;;;9.60;99.90;;;;;;5072612;28;20083;-77
2023/12/17 09:22:06;;;;;;;24.63;14.73;;;9.60;99.90;;;;;;5040127;28;20055;-78
2023/12/17 09:24:32;;;;;;;22.33;13.53;;;9.60;99.90;;;;;;5061733;28;20079;-77
2023/12/17 09:26:59;;;;;;;23.57;13.60;;;9.60;99.90;;;;;;5036406;28;20210;-77
2023/12/17 09:29:25;;;;;;;21.70;13.23;;;9.70;99.90;;;;;;5055179;28;20040;-76
2023/12/17 09:31:51;;;;;;;23.83;13.80;;;9.60;99.90;;;;;;5038369;28;20040;-77
2023/12/17 09:34:16;;;;;;;21.77;13.00;;;9.60;99.90;;;;;;5058494;28;20048;-77
2023/12/17 09:36:43;;;;;;;24.33;13.07;;;9.70;99.90;;;;;;5059545;28;20048;-77
2023/12/17 09:39:08;;;;;;;23.97;12.57;;;9.70;99.90;;;;;;5056575;28;20040;-77
2023/12/17 09:41:34;;;;;;;21.50;12.50;;;9.70;99.90;;;;;;5077618;28;20090;-77
2023/12/17 09:44:00;;;;;;;25.33;13.80;;;9.70;99.90;;;;;;5038648;28;20127;-77
2023/12/17 09:46:27;;;;;;;24.47;13.43;;;9.70;99.90;;;;;;5069187;28;20036;-76
2023/12/17 09:48:52;;;;;;;23.30;14.17;;;9.70;99.90;;;;;;5066764;28;20110;-77
2023/12/17 09:51:18;;;;;;;23.30;14.07;;;9.70;99.90;;;;;;5040803;28;20040;-79
2023/12/17 09:53:44;;;;;;;21.83;14.67;;;9.70;99.90;;;;;;5058348;28;20052;-76
2023/12/17 09:56:13;;;;;;;25.87;14.63;;;9.70;99.90;;;;;;5044517;28;20087;-76
2023/12/17 09:58:39;;;;;;;26.50;14.97;;;9.70;99.90;;;;;;5062498;28;20381;-75
2023/12/17 10:01:04;;;;;;;24.47;14.63;;;9.70;99.90;;;;;;5040064;28;20102;-76
2023/12/17 10:03:31;;;;;;;24.87;15.63;;;9.70;99.90;;;;;;5040367;28;20068;-75
2023/12/17 10:05:57;;;;;;;26.37;15.90;;;9.70;99.90;;;;;;5058646;28;20048;-76
2023/12/17 10:08:23;;;;;;;32.17;17.70;;;9.70;99.90;;;;;;5050650;28;20056;-75
2023/12/17 10:10:49;;;;;;;29.17;16.50;;;9.70;99.90;;;;;;5031074;28;20064;-75
2023/12/17 10:13:22;;;;;;;30.93;17.87;;;9.70;99.90;;;;;;5058073;28;20044;-75
2023/12/17 10:15:54;;;;;;;30.10;18.27;;;9.60;99.90;;;;;;5065669;28;20056;-74
2023/12/17 10:18:20;;;;;;;35.05;18.00;;;9.70;99.90;;;;;;5071865;28;20072;-76
2023/12/17 10:20:47;;;;;;;32.60;17.13;;;9.70;99.90;;;;;;5054219;28;20075;-75
2023/12/17 10:23:13;;;;;;;34.07;18.20;;;9.70;99.90;;;;;;5073265;28;20043;-75
2023/12/17 10:25:43;;;;;;;29.90;18.20;;;9.70;99.90;;;;;;5075821;28;20108;-74
2023/12/17 10:28:10;;;;;;;31.03;17.70;;;9.70;99.90;;;;;;5048760;28;20048;-76
2023/12/17 10:30:37;;;;;;;34.60;19.10;;;9.70;99.90;;;;;;5044132;28;20048;-76
2023/12/17 10:33:05;;;;;;;31.03;17.33;;;9.70;99.90;;;;;;5035325;28;20044;-75
2023/12/17 10:35:32;;;;;;;25.77;16.30;;;9.70;99.90;;;;;;5028478;28;20044;-76
2023/12/17 10:38:03;;;;;;;31.40;17.40;;;9.60;99.90;;;;;;5025707;28;20049;-75
2023/12/17 10:40:29;;;;;;;30.30;16.10;;;9.70;99.90;;;;;;5062877;28;20049;-75
2023/12/17 10:42:57;;;;;;;24.77;15.60;;;9.70;99.90;;;;;;5046017;28;20083;-75
2023/12/17 10:45:24;;;;;;;29.37;16.10;;;9.70;99.90;;;;;;5040545;28;20064;-75
2023/12/17 10:47:56;;;;;;;27.00;16.03;;;9.60;99.90;;;;;;5043065;28;20591;-74
2023/12/17 10:50:23;;;;;;;26.05;15.15;;;9.70;99.90;;;;;;5056219;28;20056;-76
2023/12/17 10:52:50;;;;;;;26.00;15.23;;;9.70;99.90;;;;;;5009437;28;20679;-76
2023/12/17 10:55:17;;;;;;;24.60;14.47;;;9.70;99.90;;;;;;5033704;28;20402;-75
2023/12/17 10:57:52;;;;;;;26.67;15.07;;;9.70;99.90;;;;;;5008345;28;20047;-76
2023/12/17 11:00:22;;;;;;;25.43;14.63;;;9.70;99.90;;;;;;5034964;28;20041;-76
2023/12/17 11:02:52;;;;;;;20.73;13.80;;;9.70;99.90;;;;;;5045662;28;20115;-77
2023/12/17 11:05:18;;;;;;;19.90;13.03;;;9.70;99.90;;;;;;5042912;28;20061;-75
2023/12/17 11:07:44;;;;;;;19.10;13.10;;;9.80;99.90;;;;;;5015110;28;20645;-76
2023/12/17 11:10:11;;;;;;;22.13;13.23;;;9.70;99.90;;;;;;5049189;28;20067;-76
2023/12/17 11:12:36;;;;;;;22.83;12.70;;;9.70;99.90;;;;;;5039065;28;20041;-79
2023/12/17 11:15:02;;;;;;;19.63;12.60;;;9.70;99.90;;;;;;5044344;28;20128;-77
2023/12/17 11:17:28;;;;;;;19.87;13.33;;;9.70;99.90;;;;;;5037799;28;20051;-78
2023/12/17 11:19:54;;;;;;;18.97;12.80;;;9.70;99.90;;;;;;5039189;28;20894;-76
2023/12/17 11:22:23;;;;;;;20.20;12.77;;;9.70;99.90;;;;;;5065153;28;20090;-75
2023/12/17 11:24:54;;;;;;;18.07;11.97;;;9.70;99.90;;;;;;5063936;28;20060;-76
2023/12/17 11:27:22;;;;;;;19.77;12.95;;;9.70;99.90;;;;;;5046476;28;20048;-77
2023/12/17 11:29:49;;;;;;;18.93;11.37;;;9.80;99.90;;;;;;5067890;28;20414;-74
2023/12/17 11:32:20;;;;;;;17.60;12.03;;;9.80;99.90;;;;;;5044206;28;20044;-74
2023/12/17 11:34:50;;;;;;;20.53;12.70;;;9.80;99.90;;;;;;5035565;28;20041;-78
2023/12/17 11:37:18;;;;;;;19.53;12.60;;;9.80;99.90;;;;;;5029208;28;20100;-77
2023/12/17 11:39:45;;;;;;;17.63;12.43;;;9.80;99.90;;;;;;5027673;28;20071;-76
2023/12/17 11:42:11;;;;;;;18.93;12.40;;;9.80;99.90;;;;;;5034639;28;20557;-77
2023/12/17 11:44:46;;;;;;;18.23;12.23;;;9.80;99.90;;;;;;5037707;28;20100;-76
2023/12/17 11:47:12;;;;;;;21.80;13.13;;;9.80;99.90;;;;;;5048805;28;20048;-79
2023/12/17 11:49:38;;;;;;;20.23;13.13;;;9.80;99.90;;;;;;5005027;28;20048;-76
2023/12/17 11:52:11;;;;;;;19.20;13.00;;;9.80;99.90;;;;;;5030757;28;20037;-76
2023/12/17 11:54:36;;;;;;;18.87;12.53;;;9.80;99.90;;;;;;5052280;28;20053;-75
2023/12/17 11:57:02;;;;;;;21.73;13.57;;;9.80;99.90;;;;;;5040211;28;20486;-77
2023/12/17 11:59:34;;;;;;;21.43;13.27;;;9.80;99.90;;;;;;5022031;28;20052;-76
2023/12/17 12:02:01;;;;;;;;;;;9.80;99.90;;;;;;5022648;28;20051;-77
2023/12/17 12:04:27;;;;;;;21.33;13.20;;;9.80;99.90;;;;;;5033688;28;20377;-76
2023/12/17 12:06:56;;;;;;;21.60;13.67;;;9.80;99.90;;;;;;5060096;28;20133;-76
2023/12/17 12:09:21;;;;;;;24.03;14.73;;;9.90;99.90;;;;;;5059696;28;20429;-76
2023/12/17 12:11:48;;;;;;;23.60;14.57;;;9.90;99.90;;;;;;5039638;28;20506;-75
2023/12/17 12:14:13;;;;;;;23.03;14.60;;;9.80;99.90;;;;;;5063892;28;20051;-75
2023/12/17 12:16:43;;;;;;;23.60;15.00;;;9.80;99.90;;;;;;5042250;28;20056;-75
2023/12/17 12:19:09;;;;;;;24.77;15.60;;;9.80;99.90;;;;;;5066033;28;20055;-75
2023/12/17 12:21:35;;;;;;;23.33;15.63;;;9.80;99.90;;;;;;5042491;28;20040;-76
2023/12/17 12:24:03;;;;;;;24.37;15.20;;;9.80;99.90;;;;;;5044482;28;20512;-75
2023/12/17 12:26:32;;;;;;;27.30;16.57;;;9.80;99.90;;;;;;5033439;28;20053;-73
2023/12/17 12:29:00;;;;;;;27.23;17.03;;;9.80;99.90;;;;;;5049212;28;20041;-74
2023/12/17 12:31:26;;;;;;;30.47;17.70;;;9.80;99.90;;;;;;5047293;28;20044;-73
2023/12/17 12:33:58;;;;;;;28.73;17.17;;;9.80;99.90;;;;;;5012149;28;20056;-76